Time;durP1;ratioP1;P1;durP2;ratioP2;P2;SDS_P1;SDS_P2;PMS_P1;PMS_P2;Temp;Humidity;BMP_temperature;BMP_pressure;BME280_temperature;BME280_humidity;BME280_pressure;Samples;Min_cycle;Max_cycle;Signal;HPM_P1;HPM_P2
2022/09/25 00:00:45;;;;;;;2.20;1.35;;;;;;;16.37;41.84;99155.94;5021688;28;20473;-73
2022/09/25 00:03:11;;;;;;;2.10;1.42;;;;;;;16.39;41.96;99161.88;5038250;28;20033;-75
2022/09/25 00:05:38;;;;;;;2.00;1.42;;;;;;;16.33;41.85;99159.81;5038125;28;20052;-75
2022/09/25 00:08:04;;;;;;;1.88;1.30;;;;;;;16.36;41.91;99167.44;5055835;28;20090;-75
2022/09/25 00:10:30;;;;;;;2.10;1.40;;;;;;;16.33;41.96;99159.81;5038073;28;20037;-75
2022/09/25 00:12:55;;;;;;;2.42;1.35;;;;;;;16.32;41.96;99158.16;5054322;28;20055;-75
2022/09/25 00:15:21;;;;;;;2.72;1.35;;;;;;;16.32;41.90;99166.06;5054146;28;20492;-74
2022/09/25 00:17:46;;;;;;;2.13;1.30;;;;;;;16.25;41.94;99159.69;5021200;28;20029;-75
2022/09/25 00:20:13;;;;;;;3.60;1.50;;;;;;;16.26;42.03;99148.19;5021215;28;20032;-73
2022/09/25 00:22:38;;;;;;;2.22;1.50;;;;;;;16.23;42.07;99146.69;5037809;28;20037;-73
2022/09/25 00:25:04;;;;;;;2.67;1.52;;;;;;;16.25;41.88;99149.97;5037974;28;20156;-73
2022/09/25 00:27:31;;;;;;;2.47;1.60;;;;;;;16.21;42.03;99143.38;5054048;28;20546;-73
2022/09/25 00:29:58;;;;;;;3.03;1.17;;;;;;;16.23;42.12;99149.31;5037803;28;20029;-73
2022/09/25 00:32:24;;;;;;;1.88;1.38;;;;;;;16.18;42.08;99137.56;5038119;28;20024;-73
2022/09/25 00:34:49;;;;;;;2.40;1.40;;;;;;;16.17;41.95;99135.88;5037491;28;20385;-73
2022/09/25 00:37:15;;;;;;;2.25;1.50;;;;;;;16.19;42.02;99141.84;5020837;28;20032;-73
2022/09/25 00:39:40;;;;;;;3.75;1.30;;;;;;;16.19;41.97;99141.84;5037186;28;20078;-74
2022/09/25 00:42:06;;;;;;;2.58;1.50;;;;;;;16.16;42.06;99142.13;5054096;28;20020;-73
2022/09/25 00:44:59;;;;;;;3.13;1.70;;;;;;;16.16;42.07;99144.75;5054173;28;20033;-73
2022/09/25 00:47:41;;;;;;;2.22;1.55;;;;;;;16.14;42.16;99141.44;5055249;28;20059;-73
2022/09/25 00:50:15;;;;;;;2.38;1.52;;;;;;;16.12;42.13;99140.75;5055115;28;20029;-73
2022/09/25 00:52:41;;;;;;;2.22;1.40;;;;;;;16.10;42.21;99140.91;5021201;28;20029;-74
2022/09/25 00:55:07;;;;;;;2.17;1.33;;;;;;;16.08;42.19;99134.94;5037311;28;20043;-74
2022/09/25 00:57:32;;;;;;;3.00;1.45;;;;;;;16.02;42.36;99131.06;5036079;28;20021;-74
2022/09/25 01:00:09;;;;;;;3.20;1.40;;;;;;;16.02;42.25;99128.44;5037155;28;20112;-74
2022/09/25 01:02:38;;;;;;;2.10;1.52;;;;;;;16.05;42.32;99137.84;5020636;28;20017;-73
2022/09/25 01:05:09;;;;;;;2.97;1.52;;;;;;;16.00;42.22;99125.13;5021089;28;20132;-73
2022/09/25 01:07:36;;;;;;;2.30;1.63;;;;;;;16.02;42.31;99138.97;5020458;28;20064;-73
2022/09/25 01:10:03;;;;;;;3.53;1.60;;;;;;;15.98;42.44;99134.94;5020535;28;20125;-73
2022/09/25 01:12:29;;;;;;;2.67;1.70;;;;;;;15.96;42.45;99130.81;5037177;28;20037;-73
2022/09/25 01:14:56;;;;;;;2.22;1.70;;;;;;;15.98;42.36;99140.22;5020196;28;20057;-73
2022/09/25 01:17:26;;;;;;;2.72;1.70;;;;;;;15.98;42.25;99139.41;5036823;28;20079;-73
2022/09/25 01:20:16;;;;;;;2.80;1.45;;;;;;;15.95;42.46;99142.31;5020480;28;20086;-73
2022/09/25 01:22:41;;;;;;;2.85;1.80;;;;;;;15.93;42.49;99139.81;5054661;28;20518;-73
2022/09/25 01:25:28;;;;;;;2.45;1.20;;;;;;;15.90;42.61;99140.09;5053133;28;20029;-73
2022/09/25 01:28:24;;;;;;;3.08;1.80;;;;;;;15.90;42.51;99143.56;5052922;28;20484;-74
2022/09/25 01:30:52;;;;;;;2.55;1.75;;;;;;;15.86;42.62;99136.94;5054661;28;20033;-73
2022/09/25 01:33:22;;;;;;;2.85;1.98;;;;;;;15.84;42.62;99141.47;5020064;28;20025;-73
2022/09/25 01:36:07;;;;;;;2.42;1.65;;;;;;;15.81;42.57;99133.03;5020655;28;20050;-73
2022/09/25 01:39:01;;;;;;;2.80;1.60;;;;;;;15.81;42.53;99128.59;5053317;28;20491;-74
2022/09/25 01:41:29;;;;;;;2.05;1.50;;;;;;;15.81;42.64;99136.50;5020984;28;20052;-73
2022/09/25 01:44:27;;;;;;;2.83;1.70;;;;;;;15.79;42.69;99135.00;5035867;28;20025;-73
2022/09/25 01:46:54;;;;;;;2.50;1.70;;;;;;;15.77;42.70;99134.31;5053028;28;20040;-73
2022/09/25 01:49:47;;;;;;;3.13;1.73;;;;;;;15.77;42.81;99135.13;5052794;28;20029;-73
2022/09/25 01:52:14;;;;;;;4.30;1.63;;;;;;;15.74;42.68;99140.66;5038223;28;20090;-73
2022/09/25 01:54:52;;;;;;;2.55;1.70;;;;;;;15.73;42.79;99144.25;5021884;28;20077;-73
2022/09/25 01:57:19;;;;;;;3.25;1.58;;;;;;;15.72;42.74;99140.78;5055272;28;20068;-73
2022/09/25 01:59:58;;;;;;;2.40;1.55;;;;;;;15.70;42.75;99141.88;5071670;28;20062;-73
2022/09/25 02:02:26;;;;;;;2.15;1.52;;;;;;;15.68;42.92;99149.09;5038118;28;20037;-73
2022/09/25 02:04:59;;;;;;;2.08;1.50;;;;;;;15.67;42.90;99150.91;5021669;28;20114;-73
2022/09/25 02:07:30;;;;;;;2.38;1.73;;;;;;;15.64;43.05;99147.72;5022127;28;20047;-73
2022/09/25 02:09:57;;;;;;;2.50;1.70;;;;;;;15.63;42.97;99149.53;5021480;28;20144;-73
2022/09/25 02:12:25;;;;;;;2.72;1.60;;;;;;;15.61;43.08;99153.25;5037918;28;20032;-73
2022/09/25 02:14:56;;;;;;;2.05;1.50;;;;;;;15.60;42.76;99165.59;5037860;28;20119;-73
2022/09/25 02:23:22;;;;;;;3.40;1.80;;;;;;;15.48;42.86;99146.50;5018998;28;20540;-73
2022/09/25 02:26:04;;;;;;;2.42;1.70;;;;;;;15.52;43.13;99162.81;5014209;28;20041;-73
2022/09/25 02:28:30;;;;;;;1.85;1.40;;;;;;;15.51;43.17;99169.03;4993427;28;20394;-73
2022/09/25 02:30:56;;;;;;;2.65;1.60;;;;;;;15.49;43.08;99166.53;4994428;28;20153;-73
2022/09/25 02:33:21;;;;;;;2.20;1.45;;;;;;;15.46;43.13;99153.66;4994781;28;20048;-73
2022/09/25 02:35:47;;;;;;;2.60;1.60;;;;;;;15.43;43.29;99148.69;4978936;28;20050;-73
2022/09/25 02:38:13;;;;;;;2.35;1.73;;;;;;;15.40;43.15;99145.50;4994721;28;20078;-73
2022/09/25 02:40:54;;;;;;;3.85;1.65;;;;;;;15.42;43.35;99161.97;4994893;28;20383;-74
2022/09/25 02:43:32;;;;;;;2.30;1.60;;;;;;;15.35;43.26;99148.53;4994711;28;20061;-73
2022/09/25 02:46:23;;;;;;;2.88;1.60;;;;;;;15.35;43.28;99151.16;4995538;28;20045;-73
2022/09/25 02:48:51;;;;;;;2.50;1.77;;;;;;;15.34;43.42;99147.72;4980862;28;20436;-73
2022/09/25 02:51:31;;;;;;;;;;;;;;;15.36;43.43;99147.59;4995174;28;20483;-72
2022/09/25 02:54:10;;;;;;;2.35;1.60;;;;;;;15.32;43.36;99154.06;4994399;28;19916;-75
2022/09/25 02:56:50;;;;;;;2.83;1.70;;;;;;;15.32;43.50;99164.59;4994765;28;20083;-75
2022/09/25 02:59:32;;;;;;;2.30;1.50;;;;;;;15.26;43.37;99157.25;5040911;28;20041;-75
2022/09/25 03:01:58;;;;;;;2.17;1.52;;;;;;;15.30;43.50;99170.00;5035590;28;20057;-74
2022/09/25 03:04:23;;;;;;;2.92;1.65;;;;;;;15.29;43.62;99167.50;5018798;28;20064;-74
2022/09/25 03:06:49;;;;;;;2.40;1.63;;;;;;;15.27;43.45;99164.19;5034770;28;20025;-74
2022/09/25 03:09:14;;;;;;;4.65;1.95;;;;;;;15.27;43.55;99166.81;5051355;28;20029;-73
2022/09/25 03:11:42;;;;;;;2.70;1.63;;;;;;;15.23;43.40;99162.78;5034428;28;20029;-74
2022/09/25 03:14:08;;;;;;;2.58;1.70;;;;;;;15.19;43.53;99160.44;5034970;28;20032;-73
2022/09/25 03:16:56;;;;;;;1.90;1.48;;;;;;;15.17;43.53;99156.28;5034311;28;20103;-74
2022/09/25 03:19:23;;;;;;;2.85;1.77;;;;;;;15.20;43.50;99156.00;5034037;28;20029;-73
2022/09/25 03:21:49;;;;;;;2.55;1.58;;;;;;;15.19;43.59;99156.97;5034643;28;20040;-73
2022/09/25 03:24:15;;;;;;;4.32;1.50;;;;;;;15.18;43.50;99156.16;5034604;28;20028;-74
2022/09/25 03:26:41;;;;;;;2.20;1.67;;;;;;;15.17;43.63;99158.91;5017960;28;20036;-74
2022/09/25 03:29:07;;;;;;;2.88;1.75;;;;;;;15.12;43.75;99145.34;5017809;28;20037;-74
2022/09/25 03:31:33;;;;;;;2.65;1.60;;;;;;;15.14;43.76;99157.38;5034884;28;20461;-72
2022/09/25 03:33:58;;;;;;;3.15;1.60;;;;;;;15.13;43.85;99155.75;5034427;28;20048;-74
2022/09/25 03:36:27;;;;;;;4.63;1.70;;;;;;;15.10;43.81;99155.16;5034506;28;20036;-74
2022/09/25 03:38:56;;;;;;;3.28;1.85;;;;;;;15.07;43.99;99152.78;5017788;28;20032;-75
2022/09/25 03:41:22;;;;;;;2.55;1.73;;;;;;;15.09;43.79;99159.59;5035305;28;20119;-74
2022/09/25 03:43:50;;;;;;;2.40;1.60;;;;;;;15.09;43.77;99161.41;5017770;28;20144;-73
2022/09/25 03:46:18;;;;;;;2.67;1.70;;;;;;;15.06;43.82;99154.59;5018494;28;20033;-75
2022/09/25 03:48:43;;;;;;;3.30;1.85;;;;;;;15.06;43.97;99154.59;5017998;28;20033;-73
2022/09/25 03:51:09;;;;;;;2.33;1.60;;;;;;;15.04;43.68;99151.28;5034553;28;20047;-73
2022/09/25 03:53:35;;;;;;;2.58;1.80;;;;;;;15.04;44.09;99153.06;5034241;28;20044;-73
2022/09/25 03:56:01;;;;;;;1.90;1.50;;;;;;;15.00;43.88;99144.63;5034047;28;20037;-73
2022/09/25 03:58:27;;;;;;;2.55;1.80;;;;;;;15.01;43.88;99154.19;5017729;28;20040;-74
2022/09/25 04:00:56;;;;;;;1.85;1.40;;;;;;;15.01;43.81;99157.63;5050784;28;20033;-73
2022/09/25 04:03:26;;;;;;;2.30;1.63;;;;;;;15.03;43.84;99165.38;5050780;28;20519;-75
2022/09/25 04:05:52;;;;;;;2.65;1.83;;;;;;;14.99;43.76;99156.09;5034995;28;20041;-73
2022/09/25 04:08:17;;;;;;;2.10;1.60;;;;;;;15.02;43.68;99164.56;5017628;28;20039;-73
2022/09/25 04:10:43;;;;;;;2.22;1.52;;;;;;;15.09;43.58;99164.03;5018213;28;20029;-73
2022/09/25 04:13:12;;;;;;;3.13;1.92;;;;;;;15.23;43.19;99161.00;5033933;28;20041;-73
2022/09/25 04:15:41;;;;;;;2.72;1.90;;;;;;;15.47;43.01;99170.31;5034261;28;20057;-73
2022/09/25 04:18:07;;;;;;;2.55;1.98;;;;;;;15.99;41.83;99164.78;5034081;28;20021;-73
2022/09/25 04:20:32;;;;;;;2.20;1.80;;;;;;;16.24;41.10;99156.25;5017631;28;20041;-73
2022/09/25 04:22:58;;;;;;;3.38;1.90;;;;;;;16.73;40.09;99163.97;5034054;28;20473;-75
2022/09/25 04:25:24;;;;;;;3.13;2.20;;;;;;;17.41;38.77;99156.63;5034273;28;20074;-74
2022/09/25 04:27:59;;;;;;;2.33;1.88;;;;;;;18.14;37.23;99158.22;5034204;28;20029;-75
2022/09/25 04:30:25;;;;;;;2.88;2.20;;;;;;;18.73;35.79;99163.66;5034428;28;20511;-74
2022/09/25 04:35:35;;;;;;;3.13;2.10;;;;;;;20.18;33.43;99148.34;5040385;28;20523;-74
2022/09/25 04:38:00;;;;;;;3.40;2.20;;;;;;;20.95;32.04;99153.03;5037339;28;20021;-74
2022/09/25 04:40:27;;;;;;;2.90;2.10;;;;;;;21.65;31.16;99153.97;5020878;28;20037;-74
2022/09/25 04:42:56;;;;;;;2.38;1.85;;;;;;;22.37;29.87;99166.75;5020790;28;20036;-73
2022/09/25 04:45:22;;;;;;;4.03;2.10;;;;;;;23.03;28.75;99159.81;5021053;28;20399;-73
2022/09/25 04:47:47;;;;;;;2.80;1.70;;;;;;;23.51;28.17;99169.97;5053690;28;20025;-73
2022/09/25 04:50:13;;;;;;;4.28;1.92;;;;;;;24.02;27.38;99177.81;5037598;28;20036;-74
2022/09/25 04:52:38;;;;;;;3.47;1.90;;;;;;;24.78;26.40;99165.56;5053647;28;20103;-73
2022/09/25 04:55:04;;;;;;;2.38;1.75;;;;;;;25.39;25.75;99165.56;5020706;28;20099;-73
2022/09/25 04:57:30;;;;;;;2.38;1.45;;;;;;;25.95;25.01;99163.53;5036936;28;20041;-73
2022/09/25 04:59:56;;;;;;;2.33;1.73;;;;;;;26.47;24.21;99161.03;5053850;28;20029;-72
2022/09/25 05:02:26;;;;;;;2.60;1.80;;;;;;;27.05;23.62;99162.91;5054865;28;20040;-73
2022/09/25 05:04:52;;;;;;;2.40;1.90;;;;;;;27.50;23.07;99165.56;5036827;28;20404;-73
2022/09/25 05:07:17;;;;;;;3.60;1.80;;;;;;;27.94;22.47;99166.47;5036934;28;20024;-73
2022/09/25 05:09:43;;;;;;;2.00;1.60;;;;;;;28.47;22.02;99167.81;5037147;28;20064;-74
2022/09/25 05:12:08;;;;;;;2.03;1.48;;;;;;;28.76;21.79;99168.13;5020424;28;20034;-73
2022/09/25 05:14:34;;;;;;;2.30;1.70;;;;;;;28.62;22.06;99166.63;5036646;28;20064;-74
2022/09/25 05:17:00;;;;;;;2.17;1.42;;;;;;;29.27;21.23;99179.50;5036931;28;20476;-73
2022/09/25 05:19:26;;;;;;;2.28;1.70;;;;;;;29.71;20.72;99174.66;5020382;28;20029;-73
2022/09/25 05:21:52;;;;;;;3.28;1.70;;;;;;;30.12;20.69;99177.53;5037004;28;20166;-73
2022/09/25 05:24:17;;;;;;;2.45;1.77;;;;;;;30.27;20.38;99177.91;5053788;28;20036;-73
2022/09/25 05:26:43;;;;;;;2.10;1.55;;;;;;;30.72;19.66;99184.53;5036274;28;20041;-73
2022/09/25 05:29:09;;;;;;;2.22;1.70;;;;;;;31.02;19.47;99181.63;5036688;28;20033;-73
2022/09/25 05:31:35;;;;;;;2.13;1.50;;;;;;;31.36;19.41;99191.72;5020042;28;20047;-74
2022/09/25 05:34:01;;;;;;;2.22;1.40;;;;;;;31.58;19.20;99186.47;5053386;28;20476;-74
2022/09/25 05:36:27;;;;;;;3.40;1.60;;;;;;;31.84;19.05;99201.19;5019840;28;20041;-73
2022/09/25 05:38:53;;;;;;;2.03;1.42;;;;;;;32.00;19.21;99202.22;5053022;28;20021;-74
2022/09/25 05:41:18;;;;;;;2.13;1.50;;;;;;;32.21;18.75;99200.72;5019905;28;20029;-74
2022/09/25 05:43:47;;;;;;;2.67;1.50;;;;;;;32.43;18.65;99198.03;5019221;28;20115;-75
2022/09/25 05:46:13;;;;;;;2.35;1.50;;;;;;;32.57;18.28;99201.19;5036706;28;20029;-73
2022/09/25 05:48:39;;;;;;;2.22;1.60;;;;;;;32.77;17.93;99206.06;5019695;28;20036;-74
2022/09/25 05:51:04;;;;;;;2.05;1.60;;;;;;;33.06;17.84;99205.84;5053078;28;20036;-73
2022/09/25 05:53:30;;;;;;;2.30;1.50;;;;;;;33.14;17.76;99199.97;5036224;28;20041;-73
2022/09/25 05:56:00;;;;;;;4.45;1.60;;;;;;;33.31;17.79;99193.72;5019542;28;20033;-73
2022/09/25 05:58:26;;;;;;;2.13;1.52;;;;;;;33.28;17.52;99207.75;5035609;28;20040;-75
2022/09/25 06:00:52;;;;;;;3.33;1.60;;;;;;;33.37;17.51;99200.81;5019588;28;20021;-72
2022/09/25 06:03:18;;;;;;;1.80;1.35;;;;;;;33.53;17.20;99212.59;5036057;28;20112;-73
2022/09/25 06:05:45;;;;;;;4.32;1.40;;;;;;;33.37;17.40;99203.50;5036159;28;20028;-73
2022/09/25 06:08:10;;;;;;;2.45;1.40;;;;;;;33.26;17.84;99201.78;5019708;28;20037;-74
2022/09/25 06:10:36;;;;;;;2.33;1.30;;;;;;;33.20;17.92;99203.59;5036229;28;20067;-74
2022/09/25 06:13:03;;;;;;;3.35;1.30;;;;;;;33.25;17.63;99194.72;5052272;28;20087;-74
2022/09/25 06:15:40;;;;;;;3.05;1.58;;;;;;;33.17;17.85;99198.66;5019423;28;20060;-75
2022/09/25 06:18:07;;;;;;;4.38;1.50;;;;;;;33.12;17.90;99193.22;5037046;28;20090;-74
2022/09/25 06:20:33;;;;;;;2.38;1.50;;;;;;;33.10;18.02;99193.47;5019044;28;20124;-74
2022/09/25 06:22:59;;;;;;;3.53;1.60;;;;;;;33.15;17.36;99184.59;5019105;28;20116;-75
2022/09/25 06:25:29;;;;;;;2.95;1.50;;;;;;;33.06;17.76;99188.81;5035827;28;20031;-74
2022/09/25 06:27:55;;;;;;;3.78;1.80;;;;;;;32.75;18.14;99199.25;5019589;28;20112;-74
2022/09/25 06:30:21;;;;;;;6.97;1.80;;;;;;;32.90;17.96;99196.75;5035400;28;20393;-74
2022/09/25 06:32:48;;;;;;;3.17;1.80;;;;;;;32.63;18.23;99200.22;5018974;28;20488;-75
2022/09/25 06:35:14;;;;;;;2.33;1.60;;;;;;;32.46;18.26;99202.13;5035478;28;20032;-74
2022/09/25 06:37:39;;;;;;;2.50;1.50;;;;;;;31.69;19.19;99196.38;5019010;28;20048;-73
2022/09/25 06:40:05;;;;;;;3.00;1.65;;;;;;;31.77;19.38;99197.00;5018758;28;20478;-73
2022/09/25 06:42:33;;;;;;;4.82;1.63;;;;;;;31.83;19.30;99210.31;5035171;28;20039;-73
2022/09/25 06:44:59;;;;;;;3.08;1.80;;;;;;;32.07;18.92;99208.28;5035230;28;20127;-73
2022/09/25 06:47:25;;;;;;;3.60;1.60;;;;;;;32.20;18.92;99203.66;5035092;28;20028;-72
2022/09/25 06:49:51;;;;;;;2.25;1.55;;;;;;;32.21;18.92;99214.22;5035430;28;20041;-73
2022/09/25 06:52:17;;;;;;;2.53;1.50;;;;;;;32.10;19.08;99212.41;5018489;28;20488;-73
2022/09/25 06:54:42;;;;;;;4.55;1.70;;;;;;;32.04;19.32;99211.50;5034543;28;20098;-74
2022/09/25 06:57:08;;;;;;;5.10;1.90;;;;;;;32.12;19.31;99215.69;5018435;28;20032;-73
2022/09/25 06:59:34;;;;;;;3.17;1.70;;;;;;;32.23;19.16;99213.94;5035117;28;20056;-73
2022/09/25 07:03:43;;;;;;;3.65;1.73;;;;;;;32.58;18.83;99212.81;5018488;28;20411;-73
2022/09/25 07:04:50;;;;;;;2.85;1.65;;;;;;;32.82;18.55;99208.81;5037708;28;20136;-73
2022/09/25 07:07:19;;;;;;;3.15;1.90;;;;;;;33.12;18.41;99209.44;5019421;28;20029;-73
2022/09/25 07:09:45;;;;;;;2.25;1.60;;;;;;;33.42;18.30;99200.84;5018872;28;20017;-74
2022/09/25 07:12:10;;;;;;;4.72;2.00;;;;;;;33.64;18.05;99194.56;5034709;28;20102;-74
2022/09/25 07:14:37;;;;;;;5.18;1.70;;;;;;;33.85;18.06;99193.66;5034716;28;20040;-74
2022/09/25 07:17:03;;;;;;;4.13;2.00;;;;;;;34.07;17.82;99203.56;5018270;28;20496;-73
2022/09/25 07:19:28;;;;;;;3.08;1.63;;;;;;;33.94;17.79;99201.28;5034645;28;20044;-73
2022/09/25 07:21:54;;;;;;;6.65;2.10;;;;;;;34.20;17.57;99203.09;5034458;28;20029;-73
2022/09/25 07:24:20;;;;;;;2.88;1.80;;;;;;;34.38;17.45;99201.91;5018549;28;20079;-74
2022/09/25 07:26:46;;;;;;;5.57;1.90;;;;;;;34.59;17.30;99205.50;5018330;28;20094;-74
2022/09/25 07:29:11;;;;;;;3.15;1.77;;;;;;;34.72;17.47;99208.81;5034425;28;20029;-73
2022/09/25 07:31:37;;;;;;;3.17;1.85;;;;;;;34.82;17.37;99208.06;5034661;28;20457;-74
2022/09/25 07:34:07;;;;;;;3.20;1.70;;;;;;;35.05;17.02;99199.47;5018000;28;20111;-75
2022/09/25 07:36:34;;;;;;;5.53;1.80;;;;;;;35.22;16.80;99204.69;5019299;28;20120;-73
2022/09/25 07:38:59;;;;;;;2.70;1.90;;;;;;;35.33;16.92;99195.50;5034480;28;20488;-74
2022/09/25 07:41:25;;;;;;;2.70;1.75;;;;;;;35.45;16.29;99206.09;5017916;28;20153;-73
2022/09/25 07:43:57;;;;;;;3.78;1.88;;;;;;;35.61;16.52;99193.34;5034215;28;20060;-74
2022/09/25 07:46:23;;;;;;;3.42;1.90;;;;;;;35.60;16.43;99185.47;5034833;28;20036;-73
2022/09/25 07:48:49;;;;;;;2.58;1.80;;;;;;;35.76;16.54;99183.63;5018163;28;20032;-74
2022/09/25 07:51:14;;;;;;;3.72;1.80;;;;;;;35.80;16.43;99180.06;5017860;28;20032;-74
2022/09/25 07:53:41;;;;;;;2.53;1.80;;;;;;;35.92;16.49;99177.06;5017967;28;20519;-75
2022/09/25 07:56:06;;;;;;;3.73;2.00;;;;;;;36.06;16.27;99185.47;5050924;28;20090;-77
2022/09/25 07:58:34;;;;;;;3.22;1.90;;;;;;;36.13;16.26;99183.25;5034354;28;20021;-74
2022/09/25 08:01:00;;;;;;;2.40;1.85;;;;;;;36.03;16.32;99186.03;5018033;28;20033;-74
2022/09/25 08:03:26;;;;;;;3.03;1.67;;;;;;;36.25;16.23;99187.63;5017577;28;20040;-73
2022/09/25 08:05:57;;;;;;;3.13;2.00;;;;;;;36.42;16.18;99190.03;5019193;28;20068;-74
2022/09/25 08:08:23;;;;;;;3.35;1.92;;;;;;;36.54;15.98;99190.53;5054579;28;20033;-73
2022/09/25 08:10:48;;;;;;;3.72;1.80;;;;;;;36.49;16.11;99179.69;5038238;28;20082;-73
2022/09/25 08:13:16;;;;;;;3.65;2.13;;;;;;;36.46;16.31;99182.94;5021290;28;20475;-73
2022/09/25 08:15:42;;;;;;;3.47;1.70;;;;;;;36.50;16.25;99190.28;5021728;28;20049;-73
2022/09/25 08:18:08;;;;;;;3.15;1.85;;;;;;;36.52;16.22;99184.56;5037831;28;20051;-74
2022/09/25 08:20:38;;;;;;;3.75;1.88;;;;;;;36.61;16.14;99184.78;5037765;28;20558;-73
2022/09/25 08:23:04;;;;;;;4.82;1.60;;;;;;;36.65;16.18;99178.50;5038575;28;20032;-74
2022/09/25 08:25:29;;;;;;;3.50;1.85;;;;;;;36.61;16.18;99174.75;5054472;28;20037;-74
2022/09/25 08:27:55;;;;;;;2.85;1.70;;;;;;;36.65;15.96;99177.72;5021210;28;20028;-72
2022/09/25 08:30:20;;;;;;;4.80;1.80;;;;;;;36.69;16.35;99190.47;5037778;28;20540;-73
2022/09/25 08:32:46;;;;;;;3.80;1.95;;;;;;;36.73;16.26;99175.22;5037364;28;20041;-73
2022/09/25 08:35:11;;;;;;;7.18;1.80;;;;;;;36.79;16.22;99177.94;5054764;28;20492;-73
2022/09/25 08:37:40;;;;;;;6.38;1.80;;;;;;;36.82;16.38;99178.19;5054110;28;20029;-74
2022/09/25 08:40:11;;;;;;;2.83;1.70;;;;;;;36.88;16.27;99171.63;5037723;28;20488;-75
2022/09/25 08:42:36;;;;;;;3.97;1.70;;;;;;;36.88;16.18;99171.63;5037729;28;20074;-73
2022/09/25 08:50:37;;;;;;;3.03;1.80;;;;;;;36.92;16.36;99163.72;5040192;28;20116;-72
2022/09/25 08:53:06;;;;;;;3.67;2.00;;;;;;;36.90;16.42;99164.00;5020623;28;20028;-73
2022/09/25 08:58:30;;;;;;;3.42;1.85;;;;;;;36.87;16.67;99158.31;5039996;28;20032;-73
2022/09/25 09:01:06;;;;;;;3.55;2.00;;;;;;;36.87;16.22;99142.81;5021573;28;20040;-73
2022/09/25 09:03:32;;;;;;;5.28;1.98;;;;;;;36.80;16.39;99147.75;5020386;28;20025;-74
2022/09/25 09:06:06;;;;;;;3.25;1.98;;;;;;;36.74;16.61;99149.69;5037078;28;20476;-74
2022/09/25 09:08:33;;;;;;;4.00;1.80;;;;;;;36.63;16.80;99145.34;5037059;28;20033;-74
2022/09/25 09:11:03;;;;;;;2.80;1.80;;;;;;;36.58;16.96;99146.19;5037429;28;20036;-73
2022/09/25 09:13:56;;;;;;;3.30;1.85;;;;;;;36.46;16.97;99131.28;5053419;28;20102;-74
2022/09/25 09:16:21;;;;;;;3.42;1.70;;;;;;;36.45;16.79;99135.91;5053053;28;20052;-73
2022/09/25 09:18:47;;;;;;;2.55;1.83;;;;;;;36.31;17.09;99130.28;5052365;28;20086;-73
2022/09/25 09:21:21;;;;;;;3.28;1.95;;;;;;;36.10;16.75;99118.59;5037072;28;20510;-74
2022/09/25 09:24:11;;;;;;;3.80;1.67;;;;;;;36.01;17.19;99126.53;5037737;28;20029;-73
2022/09/25 09:26:52;;;;;;;3.63;1.83;;;;;;;35.88;17.54;99113.50;5054494;28;20033;-73
2022/09/25 09:29:36;;;;;;;2.97;1.80;;;;;;;35.69;17.54;99111.34;5037042;28;20029;-73
2022/09/25 09:32:11;;;;;;;4.72;1.73;;;;;;;35.56;17.60;99119.25;5054632;28;20033;-73
2022/09/25 09:34:57;;;;;;;2.55;1.85;;;;;;;35.38;17.70;99107.84;5036941;28;20040;-74
2022/09/25 09:37:30;;;;;;;4.27;2.00;;;;;;;35.15;17.99;99110.00;5053003;28;20187;-73
2022/09/25 09:40:17;;;;;;;2.83;1.70;;;;;;;35.07;18.31;99102.38;5053374;28;20084;-73
2022/09/25 09:42:43;;;;;;;2.88;1.80;;;;;;;34.91;18.43;99103.44;5036333;28;20024;-74
2022/09/25 09:45:19;;;;;;;7.50;2.10;;;;;;;34.77;18.76;99103.94;5053954;28;20021;-72
2022/09/25 09:48:23;;;;;;;4.95;2.20;;;;;;;34.63;19.08;99100.06;5036328;28;20021;-72
2022/09/25 09:50:51;;;;;;;4.05;1.98;;;;;;;34.51;18.97;99099.53;5052805;28;20127;-74
2022/09/25 09:53:53;;;;;;;3.83;2.08;;;;;;;34.41;19.47;99113.81;5019737;28;20076;-73
2022/09/25 09:56:23;;;;;;;6.70;2.30;;;;;;;34.23;19.68;99105.09;5055630;28;20041;-73
2022/09/25 09:59:30;;;;;;;3.30;2.03;;;;;;;34.13;19.63;99105.00;5039110;28;20024;-73
2022/09/25 10:02:37;;;;;;;2.63;2.00;;;;;;;33.96;20.08;99110.59;4981335;28;20046;-73
2022/09/25 10:05:05;;;;;;;2.95;1.90;;;;;;;33.80;19.92;99104.28;4992320;28;20542;-74
2022/09/25 10:07:32;;;;;;;3.85;2.15;;;;;;;33.60;19.79;99096.81;4960222;28;20042;-73
2022/09/25 10:09:58;;;;;;;3.42;2.30;;;;;;;33.48;20.04;99098.91;4976435;28;20465;-73
2022/09/25 10:12:33;;;;;;;3.30;2.10;;;;;;;33.30;20.38;99094.69;4959843;28;20042;-74
2022/09/25 10:15:02;;;;;;;3.13;2.20;;;;;;;33.16;20.60;99086.13;4975537;28;20065;-72
2022/09/25 10:17:29;;;;;;;6.07;2.42;;;;;;;33.00;21.00;99094.13;4976459;28;20039;-74
2022/09/25 10:19:59;;;;;;;4.95;2.40;;;;;;;32.88;20.86;99084.53;4959812;28;20099;-73
2022/09/25 10:22:36;;;;;;;3.42;2.28;;;;;;;32.69;21.42;99070.53;4960180;28;20062;-73
2022/09/25 10:25:02;;;;;;;3.60;2.20;;;;;;;32.59;21.49;99068.53;4975583;28;20041;-73
2022/09/25 10:27:31;;;;;;;3.83;2.40;;;;;;;32.42;22.12;99055.91;4975920;28;20026;-74
2022/09/25 10:30:08;;;;;;;4.93;2.45;;;;;;;32.30;22.00;99051.72;4975476;28;20046;-73
2022/09/25 10:32:54;;;;;;;6.90;2.30;;;;;;;32.16;22.19;99048.59;4960620;28;20045;-73
2022/09/25 10:35:21;;;;;;;4.47;2.55;;;;;;;32.01;22.53;99052.69;4994269;28;20393;-73
2022/09/25 10:37:49;;;;;;;4.13;2.27;;;;;;;31.86;22.47;99044.38;5018879;28;20024;-73
2022/09/25 10:40:33;;;;;;;;;;;;;;;31.76;22.66;99047.75;5036298;28;20124;-73
2022/09/25 10:43:02;;;;;;;3.55;2.28;;;;;;;31.61;22.83;99053.75;5035198;28;19915;-74
2022/09/25 10:45:30;;;;;;;3.08;2.22;;;;;;;31.45;22.99;99047.28;5052894;28;20399;-74
2022/09/25 10:50:39;;;;;;;4.97;2.30;;;;;;;31.11;23.69;99024.91;5052037;28;19935;-73
2022/09/25 10:53:06;;;;;;;4.05;2.65;;;;;;;31.00;23.74;99027.41;5018380;28;20029;-73
2022/09/25 10:55:32;;;;;;;5.47;2.22;;;;;;;30.87;24.16;99038.50;5018927;28;20052;-72
2022/09/25 10:58:11;;;;;;;4.47;2.20;;;;;;;30.72;24.39;99032.81;5052485;28;20495;-73
2022/09/25 11:00:42;;;;;;;4.20;2.25;;;;;;;30.64;24.77;99031.34;5036614;28;20542;-73
2022/09/25 11:03:08;;;;;;;3.33;2.38;;;;;;;30.56;24.60;99032.53;5035131;28;20045;-73
2022/09/25 11:05:34;;;;;;;4.87;2.20;;;;;;;30.46;24.35;99021.59;5018453;28;20021;-73
2022/09/25 11:08:03;;;;;;;3.13;2.05;;;;;;;30.34;24.99;99018.09;5018447;28;20032;-73
2022/09/25 11:10:30;;;;;;;3.38;2.53;;;;;;;30.22;25.40;99018.09;5035061;28;20463;-73
2022/09/25 11:12:56;;;;;;;3.28;2.40;;;;;;;30.06;25.26;99011.59;5018371;28;20067;-73
2022/09/25 11:15:23;;;;;;;3.58;2.47;;;;;;;29.93;25.58;99004.59;5018193;28;20059;-77
2022/09/25 11:17:50;;;;;;;3.03;2.30;;;;;;;29.80;25.80;99004.88;5034687;28;20029;-73
2022/09/25 11:20:26;;;;;;;4.28;2.50;;;;;;;29.66;26.04;99017.72;5034869;28;20067;-73
2022/09/25 11:23:04;;;;;;;3.20;2.13;;;;;;;29.52;26.27;99009.06;5051147;28;20041;-72
2022/09/25 11:25:53;;;;;;;3.90;2.40;;;;;;;29.36;26.40;99003.31;5051298;28;20439;-73
2022/09/25 11:28:36;;;;;;;3.03;2.40;;;;;;;29.20;26.72;99006.72;5070855;28;20488;-74
2022/09/25 11:31:09;;;;;;;3.25;2.10;;;;;;;29.06;26.85;98992.66;5037718;28;20040;-75
2022/09/25 11:33:49;;;;;;;3.45;2.33;;;;;;;28.92;27.04;98981.28;5036720;28;20040;-73
2022/09/25 11:36:24;;;;;;;3.45;2.53;;;;;;;28.76;26.79;98987.31;5053929;28;20029;-73
2022/09/25 11:41:42;;;;;;;3.78;2.38;;;;;;;28.54;27.26;98979.75;5055950;28;20170;-73
2022/09/25 11:44:27;;;;;;;3.40;2.25;;;;;;;28.37;27.46;98979.59;5036529;28;20521;-74
2022/09/25 11:47:03;;;;;;;3.97;2.30;;;;;;;28.17;27.71;98966.44;5053509;28;20341;-73
2022/09/25 11:49:37;;;;;;;5.32;2.33;;;;;;;28.02;28.02;98963.31;5053883;28;20075;-73
2022/09/25 11:52:15;;;;;;;4.65;2.35;;;;;;;27.97;28.08;98966.66;5037509;28;20600;-75
2022/09/25 11:55:08;;;;;;;5.53;2.22;;;;;;;27.92;27.93;98964.63;5053123;28;20488;-73
2022/09/25 11:57:54;;;;;;;3.00;2.30;;;;;;;27.89;28.21;98964.25;5036406;28;20029;-74
2022/09/25 12:00:48;;;;;;;3.28;2.22;;;;;;;27.80;28.06;98944.97;5039472;28;20567;-74
2022/09/25 12:03:13;;;;;;;8.20;2.28;;;;;;;27.78;28.10;98950.56;5038098;28;20036;-73
2022/09/25 12:06:13;;;;;;;2.90;2.15;;;;;;;27.67;28.18;98948.59;5058513;28;20040;-74
2022/09/25 12:08:38;;;;;;;4.13;2.28;;;;;;;27.68;28.49;98954.81;5050718;28;20086;-73
2022/09/25 12:11:23;;;;;;;3.20;2.10;;;;;;;27.63;28.49;98947.44;5052209;28;20115;-74